To NAV CANADA Home Page Login to a new session Search on AWWS site Feedback and Comments Disclaimer Vers la page française équivalente Tips FAQ What's new on the site To the Forecasts and Observations / NOTAM section To "File a Flight Plan" website Publications and other links Update of the User's profile FIC Telephone Numbers My Weather Data Folder Route Weather Data Regional Weather Data Local Weather Data To the Forecasts and Observations / NOTAM section
Request Generated 04/28/2015 at 18:14:44 UTC . Weather information available at that time is displayed.

METAR/TAF

REGINA/REGINA INTL/SK    

METAR CYQR 281800Z 21012G20KT 170V240 15SM BKN280 20/01 A3014 RMK CI6
SLP220 DENSITY ALT 2600FT=
METAR CYQR 281700Z 23012KT 15SM BKN260 19/01 A3017 RMK CI6 SLP229
DENSITY ALT 2500FT=
METAR CYQR 281600Z 22014G20KT 15SM BKN260 17/03 A3018 RMK CI5 SLP232
DENSITY ALT 2300FT=

TAF CYQR 281738Z 2818/2918 23012KT P6SM BKN250
BECMG 2900/2902 16010KT
FM291500 18012KT P6SM FEW250
RMK NXT FCST BY 290000Z=
Your time UTC time
Weather data provided by Environment Canada and NAV CANADA